sensor_id;sensor_type;location;lat;lon;timestamp;P1;durP1;ratioP1;P2;durP2;ratioP2
75914;SDS011;64593;51.050;13.780;2022-11-04T07:03:53;49.53;;;28.48;;
75914;SDS011;64593;51.050;13.780;2022-11-04T07:08:57;49.28;;;29.40;;
75914;SDS011;64593;51.050;13.780;2022-11-04T07:14:00;46.05;;;29.17;;
75914;SDS011;64593;51.050;13.780;2022-11-04T07:19:02;43.35;;;25.90;;
75914;SDS011;64593;51.050;13.780;2022-11-04T07:24:04;36.00;;;20.65;;
75914;SDS011;64593;51.050;13.780;2022-11-04T07:29:07;32.78;;;20.13;;
75914;SDS011;64593;51.050;13.780;2022-11-04T07:34:14;34.88;;;20.63;;
75914;SDS011;64593;51.050;13.780;2022-11-04T07:39:16;26.52;;;16.95;;
75914;SDS011;64593;51.050;13.780;2022-11-04T07:44:17;28.00;;;16.23;;
75914;SDS011;64593;51.050;13.780;2022-11-04T07:49:19;22.58;;;14.50;;
75914;SDS011;64593;51.050;13.780;2022-11-04T07:54:21;23.88;;;15.07;;
75914;SDS011;64593;51.050;13.780;2022-11-04T07:59:22;24.23;;;14.35;;
75914;SDS011;64593;51.050;13.780;2022-11-04T08:04:24;28.73;;;14.23;;
75914;SDS011;64593;51.050;13.780;2022-11-04T08:09:26;21.92;;;13.70;;
75914;SDS011;64593;51.050;13.780;2022-11-04T08:14:27;18.90;;;9.70;;
75914;SDS011;64593;51.050;13.780;2022-11-04T08:19:29;17.95;;;10.63;;
75914;SDS011;64593;51.050;13.780;2022-11-04T08:24:31;17.90;;;11.00;;
75914;SDS011;64593;51.050;13.780;2022-11-04T08:29:33;22.75;;;13.20;;
75914;SDS011;64593;51.050;13.780;2022-11-04T08:34:35;19.02;;;9.90;;
75914;SDS011;64593;51.050;13.780;2022-11-04T08:39:37;23.35;;;10.23;;
75914;SDS011;64593;51.050;13.780;2022-11-04T08:44:58;14.43;;;7.45;;
75914;SDS011;64593;51.050;13.780;2022-11-04T08:50:00;18.25;;;9.85;;
75914;SDS011;64593;51.050;13.780;2022-11-04T08:55:01;11.85;;;6.38;;
75914;SDS011;64593;51.050;13.780;2022-11-04T09:00:03;15.82;;;7.80;;
75914;SDS011;64593;51.050;13.780;2022-11-04T09:05:06;11.70;;;5.88;;
75914;SDS011;64593;51.050;13.780;2022-11-04T09:10:09;9.75;;;4.70;;
75914;SDS011;64593;51.050;13.780;2022-11-04T09:15:11;7.07;;;4.00;;
75914;SDS011;64593;51.050;13.780;2022-11-04T09:20:13;9.32;;;4.85;;
75914;SDS011;64593;51.050;13.780;2022-11-04T09:25:15;7.15;;;3.83;;
75914;SDS011;64593;51.050;13.780;2022-11-04T09:30:16;6.45;;;3.83;;
75914;SDS011;64593;51.050;13.780;2022-11-04T09:35:18;6.90;;;3.65;;
75914;SDS011;64593;51.050;13.780;2022-11-04T09:40:21;7.50;;;4.28;;
75914;SDS011;64593;51.050;13.780;2022-11-04T09:45:25;7.43;;;4.05;;
75914;SDS011;64593;51.050;13.780;2022-11-04T09:50:29;8.32;;;4.15;;
75914;SDS011;64593;51.050;13.780;2022-11-04T09:55:38;12.80;;;4.78;;
75914;SDS011;64593;51.050;13.780;2022-11-04T10:00:47;9.68;;;5.07;;
75914;SDS011;64593;51.050;13.780;2022-11-04T10:11:36;10.10;;;4.95;;
75914;SDS011;64593;51.050;13.780;2022-11-04T10:22:18;8.40;;;4.60;;
75914;SDS011;64593;51.050;13.780;2022-11-04T10:27:31;9.20;;;5.20;;
75914;SDS011;64593;51.050;13.780;2022-11-04T10:32:35;17.17;;;6.93;;
75914;SDS011;64593;51.050;13.780;2022-11-04T10:38:04;13.00;;;5.60;;
75914;SDS011;64593;51.050;13.780;2022-11-04T10:43:30;11.05;;;4.68;;
75914;SDS011;64593;51.050;13.780;2022-11-04T10:48:50;10.90;;;5.30;;
75914;SDS011;64593;51.050;13.780;2022-11-04T10:53:58;8.00;;;4.53;;
75914;SDS011;64593;51.050;13.780;2022-11-04T10:59:06;8.52;;;4.13;;
75914;SDS011;64593;51.050;13.780;2022-11-04T11:04:34;8.15;;;4.25;;
75914;SDS011;64593;51.050;13.780;2022-11-04T11:14:55;9.35;;;3.97;;
75914;SDS011;64593;51.050;13.780;2022-11-04T11:19:59;7.55;;;4.00;;
75914;SDS011;64593;51.050;13.780;2022-11-04T11:25:25;7.93;;;3.15;;
75914;SDS011;64593;51.050;13.780;2022-11-04T11:30:32;10.57;;;4.90;;
75914;SDS011;64593;51.050;13.780;2022-11-04T11:35:48;7.07;;;4.20;;
75914;SDS011;64593;51.050;13.780;2022-11-04T11:40:52;7.18;;;3.92;;
75914;SDS011;64593;51.050;13.780;2022-11-04T11:51:25;7.20;;;3.42;;
75914;SDS011;64593;51.050;13.780;2022-11-04T11:56:34;7.60;;;3.38;;
75914;SDS011;64593;51.050;13.780;2022-11-04T12:13:31;6.95;;;3.88;;
75914;SDS011;64593;51.050;13.780;2022-11-04T12:29:49;6.65;;;3.70;;
75914;SDS011;64593;51.050;13.780;2022-11-04T12:40:50;6.38;;;3.20;;
75914;SDS011;64593;51.050;13.780;2022-11-04T12:51:46;4.65;;;2.95;;
75914;SDS011;64593;51.050;13.780;2022-11-04T12:57:12;5.43;;;3.72;;
75914;SDS011;64593;51.050;13.780;2022-11-04T13:02:48;5.07;;;3.65;;
75914;SDS011;64593;51.050;13.780;2022-11-04T13:07:54;5.57;;;3.92;;
75914;SDS011;64593;51.050;13.780;2022-11-04T13:12:58;7.45;;;4.10;;
75914;SDS011;64593;51.050;13.780;2022-11-04T13:18:03;7.93;;;4.95;;
75914;SDS011;64593;51.050;13.780;2022-11-04T13:23:06;9.73;;;4.30;;
75914;SDS011;64593;51.050;13.780;2022-11-04T13:28:14;6.88;;;4.43;;
75914;SDS011;64593;51.050;13.780;2022-11-04T13:33:42;6.55;;;4.35;;
75914;SDS011;64593;51.050;13.780;2022-11-04T13:43:54;10.43;;;4.95;;
75914;SDS011;64593;51.050;13.780;2022-11-04T13:49:04;9.00;;;5.35;;
75914;SDS011;64593;51.050;13.780;2022-11-04T13:54:32;8.68;;;5.13;;
75914;SDS011;64593;51.050;13.780;2022-11-04T13:59:37;7.28;;;5.40;;
75914;SDS011;64593;51.050;13.780;2022-11-04T14:04:58;7.32;;;4.10;;
75914;SDS011;64593;51.050;13.780;2022-11-04T14:15:59;8.02;;;4.63;;
75914;SDS011;64593;51.050;13.780;2022-11-04T14:21:14;11.35;;;4.85;;
75914;SDS011;64593;51.050;13.780;2022-11-04T14:26:58;11.27;;;4.53;;
75914;SDS011;64593;51.050;13.780;2022-11-04T14:31:54;9.60;;;5.05;;
75914;SDS011;64593;51.050;13.780;2022-11-04T14:36:57;11.43;;;6.20;;
75914;SDS011;64593;51.050;13.780;2022-11-04T14:42:01;8.75;;;6.22;;
75914;SDS011;64593;51.050;13.780;2022-11-04T14:57:46;10.77;;;7.13;;
75914;SDS011;64593;51.050;13.780;2022-11-04T15:02:59;13.20;;;6.70;;
75914;SDS011;64593;51.050;13.780;2022-11-04T15:13:46;13.98;;;7.13;;
75914;SDS011;64593;51.050;13.780;2022-11-04T15:18:48;12.27;;;7.15;;
75914;SDS011;64593;51.050;13.780;2022-11-04T15:23:52;10.02;;;5.97;;
75914;SDS011;64593;51.050;13.780;2022-11-04T15:29:13;10.32;;;4.97;;
75914;SDS011;64593;51.050;13.780;2022-11-04T15:34:16;7.88;;;4.45;;
75914;SDS011;64593;51.050;13.780;2022-11-04T15:39:19;8.77;;;4.63;;
75914;SDS011;64593;51.050;13.780;2022-11-04T15:44:24;7.43;;;3.75;;
75914;SDS011;64593;51.050;13.780;2022-11-04T15:49:30;9.85;;;4.90;;
75914;SDS011;64593;51.050;13.780;2022-11-04T15:54:40;10.88;;;4.43;;
75914;SDS011;64593;51.050;13.780;2022-11-04T15:59:44;7.85;;;5.07;;
75914;SDS011;64593;51.050;13.780;2022-11-04T16:15:36;15.35;;;8.75;;
75914;SDS011;64593;51.050;13.780;2022-11-04T16:20:43;10.77;;;7.03;;
75914;SDS011;64593;51.050;13.780;2022-11-04T16:25:45;14.55;;;6.90;;
75914;SDS011;64593;51.050;13.780;2022-11-04T16:30:58;18.65;;;9.57;;
75914;SDS011;64593;51.050;13.780;2022-11-04T16:36:04;9.95;;;6.75;;
75914;SDS011;64593;51.050;13.780;2022-11-04T16:41:10;15.68;;;8.43;;
75914;SDS011;64593;51.050;13.780;2022-11-04T16:46:12;10.82;;;7.22;;
75914;SDS011;64593;51.050;13.780;2022-11-04T16:51:18;11.48;;;7.93;;
75914;SDS011;64593;51.050;13.780;2022-11-04T16:56:23;14.20;;;8.27;;
75914;SDS011;64593;51.050;13.780;2022-11-04T17:01:25;11.93;;;8.20;;
75914;SDS011;64593;51.050;13.780;2022-11-04T17:06:27;12.50;;;7.82;;
75914;SDS011;64593;51.050;13.780;2022-11-04T17:11:29;16.20;;;9.07;;
75914;SDS011;64593;51.050;13.780;2022-11-04T17:16:31;12.35;;;8.25;;
75914;SDS011;64593;51.050;13.780;2022-11-04T17:21:32;11.07;;;7.50;;
75914;SDS011;64593;51.050;13.780;2022-11-04T17:26:34;19.10;;;9.05;;
75914;SDS011;64593;51.050;13.780;2022-11-04T17:31:36;15.23;;;8.30;;
75914;SDS011;64593;51.050;13.780;2022-11-04T17:36:38;12.75;;;7.80;;
75914;SDS011;64593;51.050;13.780;2022-11-04T17:41:39;13.35;;;7.65;;
75914;SDS011;64593;51.050;13.780;2022-11-04T17:47:00;10.60;;;7.38;;
75914;SDS011;64593;51.050;13.780;2022-11-04T17:52:01;12.15;;;6.72;;
75914;SDS011;64593;51.050;13.780;2022-11-04T17:57:03;11.30;;;7.18;;
75914;SDS011;64593;51.050;13.780;2022-11-04T18:02:05;12.20;;;6.85;;
75914;SDS011;64593;51.050;13.780;2022-11-04T18:07:09;11.65;;;6.95;;
75914;SDS011;64593;51.050;13.780;2022-11-04T18:12:10;9.43;;;6.22;;
75914;SDS011;64593;51.050;13.780;2022-11-04T18:17:31;11.88;;;7.70;;
75914;SDS011;64593;51.050;13.780;2022-11-04T18:22:32;12.65;;;6.72;;
75914;SDS011;64593;51.050;13.780;2022-11-04T18:27:53;12.90;;;7.65;;
75914;SDS011;64593;51.050;13.780;2022-11-04T18:32:54;15.90;;;7.93;;
75914;SDS011;64593;51.050;13.780;2022-11-04T18:37:58;11.40;;;7.72;;
75914;SDS011;64593;51.050;13.780;2022-11-04T18:43:03;14.02;;;8.32;;
75914;SDS011;64593;51.050;13.780;2022-11-04T18:48:09;13.30;;;8.07;;
75914;SDS011;64593;51.050;13.780;2022-11-04T18:53:12;11.48;;;7.72;;
75914;SDS011;64593;51.050;13.780;2022-11-04T18:58:33;11.43;;;7.78;;
75914;SDS011;64593;51.050;13.780;2022-11-04T19:03:35;16.23;;;8.45;;
75914;SDS011;64593;51.050;13.780;2022-11-04T19:08:38;15.20;;;8.63;;
75914;SDS011;64593;51.050;13.780;2022-11-04T19:13:49;13.68;;;8.32;;
75914;SDS011;64593;51.050;13.780;2022-11-04T19:18:52;14.88;;;8.55;;
75914;SDS011;64593;51.050;13.780;2022-11-04T19:23:58;15.13;;;9.15;;
75914;SDS011;64593;51.050;13.780;2022-11-04T19:29:02;13.70;;;8.82;;
75914;SDS011;64593;51.050;13.780;2022-11-04T19:34:05;16.85;;;9.52;;
75914;SDS011;64593;51.050;13.780;2022-11-04T19:39:08;18.90;;;8.10;;
75914;SDS011;64593;51.050;13.780;2022-11-04T19:44:11;18.33;;;10.27;;
75914;SDS011;64593;51.050;13.780;2022-11-04T19:49:17;11.07;;;7.25;;
75914;SDS011;64593;51.050;13.780;2022-11-04T19:54:19;17.30;;;7.80;;
75914;SDS011;64593;51.050;13.780;2022-11-04T19:59:20;14.55;;;9.85;;
75914;SDS011;64593;51.050;13.780;2022-11-04T20:04:22;10.98;;;7.65;;
75914;SDS011;64593;51.050;13.780;2022-11-04T20:09:24;14.48;;;8.30;;
75914;SDS011;64593;51.050;13.780;2022-11-04T20:14:27;16.30;;;8.25;;
75914;SDS011;64593;51.050;13.780;2022-11-04T20:19:29;14.55;;;8.43;;
75914;SDS011;64593;51.050;13.780;2022-11-04T20:24:30;13.88;;;7.30;;
75914;SDS011;64593;51.050;13.780;2022-11-04T20:29:53;14.52;;;7.75;;
75914;SDS011;64593;51.050;13.780;2022-11-04T20:34:55;14.38;;;8.05;;
75914;SDS011;64593;51.050;13.780;2022-11-04T20:39:57;14.27;;;9.13;;
75914;SDS011;64593;51.050;13.780;2022-11-04T20:44:59;18.58;;;10.07;;
75914;SDS011;64593;51.050;13.780;2022-11-04T20:50:00;15.70;;;9.48;;
75914;SDS011;64593;51.050;13.780;2022-11-04T20:55:05;17.48;;;8.57;;
75914;SDS011;64593;51.050;13.780;2022-11-04T21:00:08;18.65;;;8.68;;
75914;SDS011;64593;51.050;13.780;2022-11-04T21:05:10;12.88;;;7.65;;
75914;SDS011;64593;51.050;13.780;2022-11-04T21:10:30;17.55;;;9.00;;
75914;SDS011;64593;51.050;13.780;2022-11-04T21:15:33;16.75;;;8.65;;
75914;SDS011;64593;51.050;13.780;2022-11-04T21:20:41;14.65;;;8.32;;
75914;SDS011;64593;51.050;13.780;2022-11-04T21:25:44;12.43;;;8.05;;
75914;SDS011;64593;51.050;13.780;2022-11-04T21:30:52;16.15;;;8.25;;
75914;SDS011;64593;51.050;13.780;2022-11-04T21:35:54;13.70;;;7.78;;
75914;SDS011;64593;51.050;13.780;2022-11-04T21:41:02;11.75;;;7.05;;
75914;SDS011;64593;51.050;13.780;2022-11-04T21:46:06;10.98;;;7.72;;
75914;SDS011;64593;51.050;13.780;2022-11-04T21:51:13;13.73;;;7.85;;
75914;SDS011;64593;51.050;13.780;2022-11-04T21:56:24;20.80;;;9.70;;
75914;SDS011;64593;51.050;13.780;2022-11-04T22:01:27;21.95;;;8.82;;
75914;SDS011;64593;51.050;13.780;2022-11-04T22:06:30;16.88;;;8.40;;
75914;SDS011;64593;51.050;13.780;2022-11-04T22:11:35;15.00;;;8.20;;
75914;SDS011;64593;51.050;13.780;2022-11-04T22:21:59;15.95;;;9.43;;
75914;SDS011;64593;51.050;13.780;2022-11-04T22:27:00;15.75;;;9.00;;
75914;SDS011;64593;51.050;13.780;2022-11-04T22:32:02;16.92;;;8.57;;
75914;SDS011;64593;51.050;13.780;2022-11-04T22:37:22;17.35;;;10.63;;
75914;SDS011;64593;51.050;13.780;2022-11-04T22:42:24;17.23;;;9.77;;
75914;SDS011;64593;51.050;13.780;2022-11-04T22:47:26;17.33;;;9.63;;
75914;SDS011;64593;51.050;13.780;2022-11-04T22:52:27;21.63;;;10.93;;
75914;SDS011;64593;51.050;13.780;2022-11-04T22:57:48;18.40;;;9.88;;
